Terminal Aerodrome Forecast
Issued by NWS

Current Version | Previous Version | Graphics & Text | Print | Product List | Glossary On
Versions: 1 2 3 4 5 6 7 8 9 10 11 12 13 14 15 16 17 18
535
FTUS41 KILN 131744
TAFLUK
TAF
KLUK 131744Z 1318/1418 36010KT P6SM BKN040
     FM132300 35004KT P6SM BKN040
     FM140300 00000KT P6SM SCT040
     FM141500 14004KT P6SM FEW040=

USA.gov is the U.S. government's official web portal to all federal, state and local government web resources and services.